createdAt,value
2022-10-25T00:00:21.882Z,13.77
2022-10-25T00:02:48.725Z,11.23
2022-10-25T00:05:16.358Z,13.85
2022-10-25T00:07:43.392Z,14.85
2022-10-25T00:10:10.979Z,13.02
2022-10-25T00:12:45.802Z,12.07
2022-10-25T00:15:15.347Z,15.35
2022-10-25T00:17:43.251Z,15.25
2022-10-25T00:20:12.156Z,12.85
2022-10-25T00:22:39.383Z,14.45
2022-10-25T00:25:08.631Z,11.60
2022-10-25T00:27:36.509Z,16.60
2022-10-25T00:30:06.544Z,14.30
2022-10-25T00:32:34.644Z,13.60
2022-10-25T00:35:01.422Z,12.07
2022-10-25T00:37:28.662Z,16.05
2022-10-25T00:39:55.772Z,16.10
2022-10-25T00:42:26.513Z,16.85
2022-10-25T00:44:56.167Z,12.75
2022-10-25T00:47:39.956Z,17.50
2022-10-25T00:50:35.332Z,10.38
2022-10-25T00:53:13.696Z,13.23
2022-10-25T00:55:45.915Z,17.45
2022-10-25T00:58:20.848Z,16.50
2022-10-25T01:00:48.793Z,18.35
2022-10-25T01:03:18.251Z,11.02
2022-10-25T01:05:45.400Z,14.32
2022-10-25T01:08:12.771Z,17.75
2022-10-25T01:10:40.259Z,15.25
2022-10-25T01:13:07.818Z,9.77
2022-10-25T01:16:00.944Z,9.05
2022-10-25T01:18:58.705Z,13.25
2022-10-25T01:21:48.760Z,13.45
2022-10-25T01:24:27.818Z,11.98
2022-10-25T01:27:22.496Z,14.52
2022-10-25T01:30:46.956Z,13.77
2022-10-25T01:33:41.167Z,11.43
2022-10-25T01:36:21.047Z,17.92
2022-10-25T01:39:11.009Z,13.90
2022-10-25T01:41:49.796Z,14.63
2022-10-25T01:44:25.363Z,13.23
2022-10-25T01:46:58.941Z,13.02
2022-10-25T01:49:50.533Z,16.13
2022-10-25T01:52:22.109Z,13.90
2022-10-25T01:54:50.485Z,16.10
2022-10-25T01:58:10.946Z,17.02
2022-10-25T02:01:34.960Z,14.90
2022-10-25T02:04:23.931Z,18.98
2022-10-25T02:07:08.268Z,14.60
2022-10-25T02:10:02.996Z,10.02
2022-10-25T02:13:03.269Z,12.77
2022-10-25T02:16:02.979Z,12.68
2022-10-25T02:18:34.941Z,9.55
2022-10-25T02:21:03.888Z,9.93
2022-10-25T02:23:34.917Z,15.88
2022-10-25T02:26:06.862Z,9.98
2022-10-25T02:28:38.623Z,18.33
2022-10-25T02:31:10.920Z,10.23
2022-10-25T02:33:38.217Z,16.10
2022-10-25T02:36:08.521Z,12.10
2022-10-25T02:38:36.364Z,14.15
2022-10-25T02:41:05.012Z,16.50
2022-10-25T02:43:32.382Z,11.32
2022-10-25T02:45:59.603Z,12.75
2022-10-25T02:48:26.860Z,13.00
2022-10-25T02:50:53.606Z,11.30
2022-10-25T02:53:20.343Z,14.88
2022-10-25T02:55:47.279Z,10.10
2022-10-25T02:58:14.141Z,10.63
2022-10-25T03:00:42.341Z,13.23
2022-10-25T03:03:09.112Z,11.88
2022-10-25T03:05:35.915Z,6.07
2022-10-25T03:08:02.800Z,7.47
2022-10-25T03:10:29.567Z,11.40
2022-10-25T03:12:56.324Z,14.18
2022-10-25T03:15:23.267Z,10.02
2022-10-25T03:17:50.091Z,11.82
2022-10-25T03:20:17.152Z,7.60
2022-10-25T03:22:44.286Z,9.23
2022-10-25T03:25:11.089Z,13.35
2022-10-25T03:27:37.885Z,7.90
2022-10-25T03:30:05.308Z,8.60
2022-10-25T03:32:32.083Z,8.80
2022-10-25T03:34:58.846Z,9.18
2022-10-25T03:37:25.856Z,7.80
2022-10-25T03:39:54.325Z,6.95
2022-10-25T03:42:21.234Z,9.73
2022-10-25T03:44:48.472Z,14.98
2022-10-25T03:47:15.672Z,11.35
2022-10-25T03:49:42.627Z,11.82
2022-10-25T03:52:10.524Z,8.43
2022-10-25T03:54:38.020Z,6.47
2022-10-25T03:57:05.267Z,9.77
2022-10-25T03:59:32.044Z,13.65
2022-10-25T04:01:59.080Z,10.98
2022-10-25T04:04:25.933Z,13.57
2022-10-25T04:06:53.095Z,8.27
2022-10-25T04:09:19.886Z,7.30
2022-10-25T04:11:46.711Z,7.50
2022-10-25T04:14:13.817Z,5.78
2022-10-25T04:16:40.567Z,12.05
2022-10-25T04:19:07.469Z,5.32
2022-10-25T04:21:34.258Z,15.60
2022-10-25T04:24:03.506Z,13.85
2022-10-25T04:26:31.379Z,6.70
2022-10-25T04:28:58.191Z,9.68
2022-10-25T04:31:25.414Z,9.10
2022-10-25T04:33:54.264Z,10.60
2022-10-25T04:36:22.441Z,12.85
2022-10-25T04:38:53.543Z,10.65
2022-10-25T04:41:21.299Z,8.55
2022-10-25T04:43:50.540Z,9.40
2022-10-25T04:46:17.422Z,11.05
2022-10-25T04:48:44.276Z,7.15
2022-10-25T04:51:12.633Z,7.50
2022-10-25T04:53:40.075Z,9.05
2022-10-25T04:56:10.457Z,9.88
2022-10-25T04:58:37.743Z,11.38
2022-10-25T05:01:12.423Z,12.20
2022-10-25T05:03:40.238Z,12.48
2022-10-25T05:06:17.835Z,14.32
2022-10-25T05:08:48.184Z,14.73
2022-10-25T05:11:18.326Z,8.32
2022-10-25T05:13:46.343Z,11.77
2022-10-25T05:16:18.038Z,13.98
2022-10-25T05:18:47.547Z,15.30
2022-10-25T05:21:16.264Z,15.55
2022-10-25T05:23:43.207Z,15.55
2022-10-25T05:26:15.833Z,13.90
2022-10-25T05:28:44.615Z,12.35
2022-10-25T05:31:23.663Z,16.08
2022-10-25T05:33:55.032Z,13.68
2022-10-25T05:36:22.392Z,12.23
2022-10-25T05:38:49.720Z,17.95
2022-10-25T05:41:18.511Z,14.93
2022-10-25T05:43:46.153Z,10.27
2022-10-25T05:46:22.550Z,16.75
2022-10-25T05:48:51.457Z,11.52
2022-10-25T05:51:34.578Z,10.85
2022-10-25T05:54:16.120Z,15.52
2022-10-25T05:56:43.933Z,14.05
2022-10-25T05:59:13.510Z,12.40
2022-10-25T06:01:46.135Z,12.93
2022-10-25T06:04:14.491Z,19.75
2022-10-25T06:06:44.081Z,18.35
2022-10-25T06:09:11.951Z,20.48
2022-10-25T06:11:39.941Z,16.52
2022-10-25T06:14:07.141Z,22.98
2022-10-25T06:16:34.005Z,19.98
2022-10-25T06:19:00.854Z,19.35
2022-10-25T06:21:29.687Z,21.02
2022-10-25T06:23:58.937Z,25.95
2022-10-25T06:26:29.852Z,24.88
2022-10-25T06:29:00.126Z,18.05
2022-10-25T06:31:27.586Z,19.85
2022-10-25T06:33:54.342Z,24.63
2022-10-25T06:36:27.036Z,31.85
2022-10-25T06:38:54.359Z,23.05
2022-10-25T06:41:28.121Z,20.13
2022-10-25T06:43:55.716Z,25.75
2022-10-25T06:46:40.585Z,27.02
2022-10-25T06:49:19.558Z,21.90
2022-10-25T06:51:46.337Z,26.77
2022-10-25T06:54:13.163Z,20.30
2022-10-25T06:56:39.953Z,23.42
2022-10-25T06:59:07.463Z,25.90
2022-10-25T07:01:34.568Z,21.25
2022-10-25T07:04:03.537Z,23.33
2022-10-25T07:06:40.511Z,21.88
2022-10-25T07:09:10.250Z,20.52
2022-10-25T07:11:37.490Z,31.08
2022-10-25T07:14:04.855Z,25.02
2022-10-25T07:16:32.266Z,22.05
2022-10-25T07:19:03.874Z,22.27
2022-10-25T07:21:32.610Z,19.60
2022-10-25T07:23:59.657Z,26.17
2022-10-25T07:26:31.365Z,22.25
2022-10-25T07:29:00.501Z,17.80
2022-10-25T07:31:32.059Z,25.17
2022-10-25T07:34:02.686Z,17.20
2022-10-25T07:36:30.121Z,25.10
2022-10-25T07:38:57.240Z,16.63
2022-10-25T07:41:25.412Z,16.55
2022-10-25T07:43:52.380Z,16.23
2022-10-25T07:46:19.170Z,27.85
2022-10-25T07:48:46.121Z,20.50
2022-10-25T07:51:15.743Z,19.60
2022-10-25T07:53:43.470Z,24.08
2022-10-25T07:56:23.181Z,21.15
2022-10-25T07:58:54.120Z,19.45
2022-10-25T08:01:27.677Z,22.15
2022-10-25T08:03:55.846Z,18.63
2022-10-25T08:06:24.842Z,20.95
2022-10-25T08:08:51.716Z,17.38
2022-10-25T08:11:19.272Z,16.95
2022-10-25T08:13:50.432Z,18.92
2022-10-25T08:16:17.568Z,21.25
2022-10-25T08:18:44.707Z,18.58
2022-10-25T08:21:11.820Z,19.45
2022-10-25T08:23:38.715Z,19.10
2022-10-25T08:26:05.619Z,21.25
2022-10-25T08:28:32.431Z,23.27
2022-10-25T08:31:01.614Z,21.80
2022-10-25T08:33:28.860Z,19.92
2022-10-25T08:35:55.663Z,21.27
2022-10-25T08:38:22.588Z,20.33
2022-10-25T08:41:02.401Z,23.63
2022-10-25T08:43:39.932Z,22.55
2022-10-25T08:46:34.799Z,23.17
2022-10-25T08:49:19.536Z,18.17
2022-10-25T08:51:48.890Z,24.60
2022-10-25T08:54:26.689Z,13.75
2022-10-25T08:57:15.412Z,20.02
2022-10-25T08:59:47.743Z,17.30
2022-10-25T09:02:33.650Z,16.00
2022-10-25T09:05:00.692Z,18.08
2022-10-25T09:08:01.291Z,20.15
2022-10-25T09:10:55.283Z,18.65
2022-10-25T09:13:40.066Z,16.63
2022-10-25T09:16:43.976Z,13.05
2022-10-25T09:19:22.931Z,16.42
2022-10-25T09:22:30.600Z,17.42
2022-10-25T09:25:21.566Z,16.65
2022-10-25T09:28:03.785Z,15.20
2022-10-25T09:30:37.902Z,15.32
2022-10-25T09:33:11.375Z,19.13
2022-10-25T09:35:55.763Z,15.25
2022-10-25T09:38:39.276Z,19.30
2022-10-25T09:41:32.375Z,23.48
2022-10-25T09:44:41.705Z,13.63
2022-10-25T09:47:32.958Z,17.63
2022-10-25T09:50:16.650Z,11.48
2022-10-25T09:53:12.934Z,11.73
2022-10-25T09:56:03.970Z,17.15
2022-10-25T09:58:39.760Z,15.30
2022-10-25T10:01:16.666Z,14.00
2022-10-25T10:03:46.707Z,17.40
2022-10-25T10:06:28.017Z,14.18
2022-10-25T10:09:03.639Z,10.45
2022-10-25T10:11:33.007Z,12.25
2022-10-25T10:14:15.086Z,14.18
2022-10-25T10:16:50.724Z,16.98
2022-10-25T10:19:30.448Z,12.32
2022-10-25T10:22:09.913Z,12.15
2022-10-25T10:24:41.536Z,13.70
2022-10-25T10:27:26.399Z,15.15
2022-10-25T10:30:03.571Z,13.77
2022-10-25T10:32:37.454Z,15.25
2022-10-25T10:35:08.181Z,14.90
2022-10-25T10:37:34.995Z,10.80
2022-10-25T10:40:07.751Z,10.63
2022-10-25T10:42:41.813Z,18.77
2022-10-25T10:45:08.728Z,11.60
2022-10-25T10:47:43.353Z,14.55
2022-10-25T10:50:32.899Z,18.35
2022-10-25T10:53:07.042Z,11.02
2022-10-25T10:55:44.014Z,7.45
2022-10-25T10:58:19.358Z,12.15
2022-10-25T11:00:55.117Z,16.20
2022-10-25T11:03:59.141Z,18.13
2022-10-25T11:06:36.722Z,11.55
2022-10-25T11:09:13.108Z,11.18
2022-10-25T11:11:40.941Z,15.27
2022-10-25T11:14:20.348Z,13.23
2022-10-25T11:16:56.778Z,11.60
2022-10-25T11:19:53.459Z,13.30
2022-10-25T11:23:02.663Z,12.00
2022-10-25T11:26:01.868Z,13.93
2022-10-25T11:28:34.897Z,12.65
2022-10-25T11:31:21.668Z,13.55
2022-10-25T11:34:00.166Z,7.57
2022-10-25T11:36:47.807Z,8.35
2022-10-25T11:39:17.575Z,9.00
2022-10-25T11:41:49.463Z,6.60
2022-10-25T11:44:56.039Z,10.25
2022-10-25T11:47:43.312Z,12.95
2022-10-25T11:50:33.444Z,10.70
2022-10-25T11:53:24.619Z,8.82
2022-10-25T11:56:19.386Z,9.10
2022-10-25T11:58:57.768Z,10.52
2022-10-25T12:01:58.719Z,9.18
2022-10-25T12:05:06.991Z,8.88
2022-10-25T12:07:53.451Z,7.68
2022-10-25T12:10:33.451Z,8.55
2022-10-25T12:13:17.328Z,12.75
2022-10-25T12:15:48.651Z,9.05
2022-10-25T12:18:42.742Z,9.63
2022-10-25T12:21:13.628Z,9.20
2022-10-25T12:23:49.198Z,8.43
2022-10-25T12:26:30.044Z,11.60
2022-10-25T12:29:01.935Z,10.82
2022-10-25T12:31:44.441Z,8.68
2022-10-25T12:34:26.927Z,7.93
2022-10-25T12:37:04.071Z,14.05
2022-10-25T12:39:44.494Z,7.78
2022-10-25T12:42:38.239Z,7.97
2022-10-25T12:45:27.343Z,5.57
2022-10-25T12:48:17.634Z,8.00
2022-10-25T12:50:50.814Z,8.02
2022-10-25T12:53:58.104Z,6.72
2022-10-25T12:56:52.547Z,9.00
2022-10-25T12:59:43.379Z,8.73
2022-10-25T13:02:50.944Z,6.82
2022-10-25T13:05:45.195Z,8.00
2022-10-25T13:08:21.632Z,14.77
2022-10-25T13:11:01.854Z,8.82
2022-10-25T13:13:33.888Z,6.80
2022-10-25T13:16:05.737Z,6.72
2022-10-25T13:18:32.729Z,8.75
2022-10-25T13:21:08.278Z,6.57
2022-10-25T13:23:46.834Z,10.18
2022-10-25T13:26:25.901Z,10.43
2022-10-25T13:29:39.335Z,3.80
2022-10-25T13:32:10.339Z,7.47
2022-10-25T13:34:39.403Z,8.77
2022-10-25T13:37:33.560Z,6.50
2022-10-25T13:40:05.045Z,4.72
2022-10-25T13:42:38.781Z,6.82
2022-10-25T13:45:09.223Z,8.82
2022-10-25T13:47:47.173Z,4.70
2022-10-25T13:50:35.913Z,9.63
2022-10-25T13:53:21.555Z,10.60
2022-10-25T13:55:58.199Z,6.32
2022-10-25T13:58:32.178Z,8.48
2022-10-25T14:01:20.816Z,7.70
2022-10-25T14:04:21.293Z,8.48
2022-10-25T14:06:48.174Z,7.22
2022-10-25T14:09:30.087Z,7.18
2022-10-25T14:12:00.142Z,7.22
2022-10-25T14:14:34.265Z,6.97
2022-10-25T14:17:26.899Z,8.43
2022-10-25T14:19:59.289Z,10.45
2022-10-25T14:22:54.310Z,6.85
2022-10-25T14:25:25.615Z,6.87
2022-10-25T14:28:10.582Z,8.93
2022-10-25T14:31:05.968Z,9.35
2022-10-25T14:33:51.491Z,9.45
2022-10-25T14:39:18.500Z,7.70
2022-10-25T14:41:55.739Z,7.35
2022-10-25T14:44:30.344Z,6.78
2022-10-25T14:47:00.034Z,12.98
2022-10-25T14:49:28.021Z,9.82
2022-10-25T14:52:01.061Z,9.13
2022-10-25T14:54:36.168Z,9.38
2022-10-25T14:59:46.707Z,10.75
2022-10-25T15:02:22.635Z,8.43
2022-10-25T15:04:52.868Z,8.13
2022-10-25T15:07:31.476Z,8.80
2022-10-25T15:10:01.497Z,7.25
2022-10-25T15:12:31.509Z,8.73
2022-10-25T15:15:31.765Z,8.57
2022-10-25T15:17:58.647Z,11.52
2022-10-25T15:20:34.886Z,6.38
2022-10-25T15:23:15.352Z,9.63
2022-10-25T15:25:42.219Z,10.60
2022-10-25T15:28:15.869Z,7.53
2022-10-25T15:31:03.082Z,7.97
2022-10-25T15:33:32.506Z,6.15
2022-10-25T15:36:04.850Z,8.15
2022-10-25T15:39:05.529Z,11.15
2022-10-25T15:41:23.767Z,11.52
2022-10-25T15:43:52.503Z,7.65
2022-10-25T15:46:30.387Z,7.00
2022-10-25T15:49:04.372Z,6.50
2022-10-25T15:51:34.747Z,5.80
2022-10-25T15:54:01.900Z,8.35
2022-10-25T15:56:29.278Z,9.82
2022-10-25T15:58:56.726Z,7.25
2022-10-25T16:01:23.652Z,8.60
2022-10-25T16:03:50.533Z,7.35
2022-10-25T16:06:17.319Z,9.07
2022-10-25T16:08:44.429Z,9.63
2022-10-25T16:11:19.604Z,9.80
2022-10-25T16:13:49.282Z,12.60
2022-10-25T16:16:41.771Z,10.75
2022-10-25T16:19:28.505Z,10.70
2022-10-25T16:21:55.364Z,11.00
2022-10-25T16:24:22.172Z,8.35
2022-10-25T16:26:50.260Z,12.50
2022-10-25T16:29:24.523Z,10.63
2022-10-25T16:31:52.194Z,9.97
2022-10-25T16:34:19.834Z,6.70
2022-10-25T16:36:49.115Z,10.82
2022-10-25T16:39:17.017Z,13.68
2022-10-25T16:41:46.063Z,7.13
2022-10-25T16:44:15.742Z,12.10
2022-10-25T16:46:42.590Z,9.73
2022-10-25T16:49:09.651Z,8.93
2022-10-25T16:51:38.338Z,10.57
2022-10-25T16:54:05.694Z,12.00
2022-10-25T16:56:32.573Z,9.63
2022-10-25T16:58:59.721Z,13.27
2022-10-25T17:01:33.839Z,9.63
2022-10-25T17:04:02.350Z,10.80
2022-10-25T17:06:40.917Z,10.57
2022-10-25T17:09:09.256Z,11.13
2022-10-25T17:11:36.531Z,10.88
2022-10-25T17:14:04.385Z,20.13
2022-10-25T17:16:31.459Z,23.52
2022-10-25T17:18:58.235Z,17.17
2022-10-25T17:21:25.038Z,17.08
2022-10-25T17:23:51.840Z,14.95
2022-10-25T17:26:18.618Z,17.88
2022-10-25T17:28:45.379Z,11.57
2022-10-25T17:31:15.043Z,17.55
2022-10-25T17:33:43.164Z,8.23
2022-10-25T17:36:16.451Z,14.98
2022-10-25T17:38:43.878Z,16.45
2022-10-25T17:41:11.972Z,15.00
2022-10-25T17:43:40.838Z,13.15
2022-10-25T17:46:17.052Z,14.27
2022-10-25T17:48:43.840Z,14.90
2022-10-25T17:51:15.479Z,18.35
2022-10-25T17:53:42.549Z,10.65
2022-10-25T17:56:20.266Z,11.85
2022-10-25T17:58:49.725Z,12.93
2022-10-25T18:01:20.162Z,13.60
2022-10-25T18:03:47.761Z,10.93
2022-10-25T18:06:18.213Z,13.45
2022-10-25T18:08:45.746Z,9.68
2022-10-25T18:11:19.457Z,13.15
2022-10-25T18:13:46.348Z,11.52
2022-10-25T18:16:13.214Z,13.70
2022-10-25T18:18:40.185Z,14.70
2022-10-25T18:21:13.553Z,12.52
2022-10-25T18:23:41.695Z,11.20
2022-10-25T18:26:11.565Z,13.00
2022-10-25T18:28:39.085Z,11.65
2022-10-25T18:31:09.869Z,13.77
2022-10-25T18:33:39.568Z,18.92
2022-10-25T18:36:08.855Z,10.82
2022-10-25T18:38:36.551Z,13.50
2022-10-25T18:41:26.390Z,13.55
2022-10-25T18:43:54.994Z,9.80
2022-10-25T18:46:23.558Z,9.85
2022-10-25T18:48:52.811Z,14.23
2022-10-25T18:51:22.090Z,10.63
2022-10-25T18:53:53.409Z,14.32
2022-10-25T18:56:22.125Z,8.75
2022-10-25T18:58:50.031Z,7.88
2022-10-25T19:01:21.085Z,10.68
2022-10-25T19:03:48.052Z,13.98
2022-10-25T19:06:15.067Z,14.82
2022-10-25T19:08:43.103Z,10.30
2022-10-25T19:11:13.428Z,9.27
2022-10-25T19:13:41.405Z,14.05
2022-10-25T19:16:09.468Z,9.27
2022-10-25T19:18:37.698Z,10.38
2022-10-25T19:21:13.971Z,13.07
2022-10-25T19:23:42.827Z,13.18
2022-10-25T19:26:15.638Z,16.60
2022-10-25T19:28:42.798Z,9.88
2022-10-25T19:31:14.208Z,8.80
2022-10-25T19:33:46.104Z,10.80
2022-10-25T19:36:13.879Z,12.27
2022-10-25T19:38:41.333Z,10.80
2022-10-25T19:41:13.030Z,12.23
2022-10-25T19:43:39.889Z,11.02
2022-10-25T19:46:07.948Z,10.52
2022-10-25T19:48:35.690Z,12.23
2022-10-25T19:51:15.397Z,12.93
2022-10-25T19:53:43.263Z,15.25
2022-10-25T19:56:20.363Z,14.05
2022-10-25T19:58:47.792Z,13.93
2022-10-25T20:01:23.775Z,11.15
2022-10-25T20:03:52.686Z,9.27
2022-10-25T20:06:24.684Z,13.68
2022-10-25T20:08:53.180Z,10.05
2022-10-25T20:11:20.972Z,14.25
2022-10-25T20:13:47.876Z,11.13
2022-10-25T20:16:15.371Z,13.23
2022-10-25T20:18:42.972Z,11.65
2022-10-25T20:21:23.709Z,10.88
2022-10-25T20:23:59.483Z,14.27
2022-10-25T20:26:27.684Z,14.38
2022-10-25T20:28:57.290Z,10.40
2022-10-25T20:31:26.436Z,14.85
2022-10-25T20:33:54.114Z,8.50
2022-10-25T20:36:22.000Z,11.00
2022-10-25T20:38:49.284Z,9.23
2022-10-25T20:41:22.787Z,10.00
2022-10-25T20:43:52.984Z,12.48
2022-10-25T20:46:21.860Z,10.90
2022-10-25T20:48:49.095Z,12.50
2022-10-25T20:51:17.280Z,11.25
2022-10-25T20:53:45.891Z,13.13
2022-10-25T20:56:13.806Z,15.95
2022-10-25T20:58:41.100Z,14.38
2022-10-25T21:01:08.408Z,11.75
2022-10-25T21:03:35.523Z,15.27
2022-10-25T21:06:05.775Z,13.38
2022-10-25T21:08:33.979Z,13.57
2022-10-25T21:11:04.646Z,10.35
2022-10-25T21:13:34.225Z,11.18
2022-10-25T21:16:13.183Z,12.23
2022-10-25T21:18:41.474Z,14.20
2022-10-25T21:21:14.414Z,12.98
2022-10-25T21:23:41.546Z,9.63
2022-10-25T21:26:09.612Z,14.98
2022-10-25T21:28:39.538Z,14.32
2022-10-25T21:31:11.164Z,13.07
2022-10-25T21:33:38.682Z,14.68
2022-10-25T21:36:11.918Z,10.55
2022-10-25T21:38:39.150Z,14.63
2022-10-25T21:41:10.138Z,12.60
2022-10-25T21:43:41.968Z,12.63
2022-10-25T21:46:08.842Z,12.65
2022-10-25T21:48:36.062Z,12.13
2022-10-25T21:51:04.179Z,14.15
2022-10-25T21:53:31.081Z,13.30
2022-10-25T21:56:12.714Z,12.65
2022-10-25T21:58:41.366Z,11.43
2022-10-25T22:01:18.496Z,13.35
2022-10-25T22:03:45.520Z,13.68
2022-10-25T22:06:16.809Z,12.15
2022-10-25T22:08:44.307Z,9.93
2022-10-25T22:11:18.284Z,14.48
2022-10-25T22:13:45.608Z,14.65
2022-10-25T22:16:20.196Z,14.98
2022-10-25T22:18:57.790Z,13.98
2022-10-25T22:21:27.584Z,11.27
2022-10-25T22:23:54.411Z,18.67
2022-10-25T22:26:22.397Z,16.33
2022-10-25T22:28:58.210Z,12.70
2022-10-25T22:31:27.708Z,13.98
2022-10-25T22:34:00.547Z,15.13
2022-10-25T22:36:34.833Z,16.60
2022-10-25T22:39:02.456Z,16.67
2022-10-25T22:41:30.731Z,13.48
2022-10-25T22:43:59.215Z,15.32
2022-10-25T22:46:29.533Z,13.10
2022-10-25T22:48:58.403Z,15.32
2022-10-25T22:51:28.101Z,15.32
2022-10-25T22:53:55.144Z,15.07
2022-10-25T22:56:29.345Z,14.13
2022-10-25T22:59:03.342Z,13.00
2022-10-25T23:01:36.414Z,16.55
2022-10-25T23:04:07.803Z,13.05
2022-10-25T23:06:39.438Z,14.75
2022-10-25T23:09:09.728Z,13.55
2022-10-25T23:11:39.683Z,14.27
2022-10-25T23:14:13.431Z,18.95
2022-10-25T23:16:43.568Z,14.00
2022-10-25T23:19:13.437Z,21.42
2022-10-25T23:21:40.213Z,14.95
2022-10-25T23:24:07.430Z,20.70
2022-10-25T23:26:36.625Z,14.27
2022-10-25T23:29:04.129Z,15.57
2022-10-25T23:31:32.051Z,13.70
2022-10-25T23:34:00.878Z,14.45
2022-10-25T23:36:37.475Z,14.68
2022-10-25T23:39:07.384Z,12.63
2022-10-25T23:41:34.352Z,12.80
2022-10-25T23:44:01.211Z,21.38
2022-10-25T23:46:27.962Z,17.17
2022-10-25T23:48:54.750Z,16.90
2022-10-25T23:51:21.754Z,15.88
2022-10-25T23:53:48.920Z,15.05
2022-10-25T23:56:15.884Z,16.20
2022-10-25T23:58:43.060Z,12.05
